sensor_id;sensor_type;location;lat;lon;timestamp;P1;durP1;ratioP1;P2;durP2;ratioP2
59770;SDS011;45649;53.014;6.600;2022-09-29T00:02:20;2.63;;;2.53;;
59770;SDS011;45649;53.014;6.600;2022-09-29T00:04:46;2.60;;;2.50;;
59770;SDS011;45649;53.014;6.600;2022-09-29T00:07:12;2.37;;;2.27;;
59770;SDS011;45649;53.014;6.600;2022-09-29T00:09:38;2.70;;;2.60;;
59770;SDS011;45649;53.014;6.600;2022-09-29T00:12:04;3.10;;;2.93;;
59770;SDS011;45649;53.014;6.600;2022-09-29T00:14:30;3.27;;;2.90;;
59770;SDS011;45649;53.014;6.600;2022-09-29T00:16:57;2.77;;;2.57;;
59770;SDS011;45649;53.014;6.600;2022-09-29T00:19:23;3.93;;;2.97;;
59770;SDS011;45649;53.014;6.600;2022-09-29T00:21:49;3.10;;;2.90;;
59770;SDS011;45649;53.014;6.600;2022-09-29T00:24:15;2.93;;;2.70;;
59770;SDS011;45649;53.014;6.600;2022-09-29T00:26:41;3.00;;;2.80;;
59770;SDS011;45649;53.014;6.600;2022-09-29T00:29:10;2.73;;;2.63;;
59770;SDS011;45649;53.014;6.600;2022-09-29T00:31:37;2.70;;;2.60;;
59770;SDS011;45649;53.014;6.600;2022-09-29T00:34:03;2.83;;;2.70;;
59770;SDS011;45649;53.014;6.600;2022-09-29T00:36:29;2.87;;;2.70;;
59770;SDS011;45649;53.014;6.600;2022-09-29T00:38:56;2.60;;;2.50;;
59770;SDS011;45649;53.014;6.600;2022-09-29T00:41:24;2.80;;;2.70;;
59770;SDS011;45649;53.014;6.600;2022-09-29T00:46:41;3.17;;;2.97;;
59770;SDS011;45649;53.014;6.600;2022-09-29T00:51:41;3.20;;;3.00;;
59770;SDS011;45649;53.014;6.600;2022-09-29T00:54:08;3.13;;;2.90;;
59770;SDS011;45649;53.014;6.600;2022-09-29T00:56:35;3.07;;;2.87;;
59770;SDS011;45649;53.014;6.600;2022-09-29T00:59:03;3.50;;;3.30;;
59770;SDS011;45649;53.014;6.600;2022-09-29T01:01:31;3.57;;;3.27;;
59770;SDS011;45649;53.014;6.600;2022-09-29T01:04:05;3.73;;;3.40;;
59770;SDS011;45649;53.014;6.600;2022-09-29T01:06:35;3.90;;;3.60;;
59770;SDS011;45649;53.014;6.600;2022-09-29T01:09:03;3.33;;;3.13;;
59770;SDS011;45649;53.014;6.600;2022-09-29T01:11:30;3.50;;;3.30;;
59770;SDS011;45649;53.014;6.600;2022-09-29T01:13:57;4.40;;;4.10;;
59770;SDS011;45649;53.014;6.600;2022-09-29T01:16:27;3.57;;;3.27;;
59770;SDS011;45649;53.014;6.600;2022-09-29T01:18:55;4.10;;;3.30;;
59770;SDS011;45649;53.014;6.600;2022-09-29T01:21:31;3.43;;;3.13;;
59770;SDS011;45649;53.014;6.600;2022-09-29T01:26:37;3.43;;;3.23;;
59770;SDS011;45649;53.014;6.600;2022-09-29T01:31:48;3.07;;;2.97;;
59770;SDS011;45649;53.014;6.600;2022-09-29T01:36:56;3.73;;;3.53;;
59770;SDS011;45649;53.014;6.600;2022-09-29T01:39:26;4.30;;;3.93;;
59770;SDS011;45649;53.014;6.600;2022-09-29T01:42:06;4.10;;;3.80;;
59770;SDS011;45649;53.014;6.600;2022-09-29T01:47:20;3.20;;;3.00;;
59770;SDS011;45649;53.014;6.600;2022-09-29T01:49:54;3.20;;;3.00;;
59770;SDS011;45649;53.014;6.600;2022-09-29T01:52:22;3.63;;;3.03;;
59770;SDS011;45649;53.014;6.600;2022-09-29T01:54:51;3.03;;;2.90;;
59770;SDS011;45649;53.014;6.600;2022-09-29T01:59:53;3.00;;;2.77;;
59770;SDS011;45649;53.014;6.600;2022-09-29T02:04:57;2.57;;;2.37;;
59770;SDS011;45649;53.014;6.600;2022-09-29T02:07:28;2.20;;;2.10;;
59770;SDS011;45649;53.014;6.600;2022-09-29T02:10:02;3.30;;;3.10;;
59770;SDS011;45649;53.014;6.600;2022-09-29T02:12:29;3.30;;;3.10;;
59770;SDS011;45649;53.014;6.600;2022-09-29T02:14:57;2.90;;;2.80;;
59770;SDS011;45649;53.014;6.600;2022-09-29T02:17:25;2.70;;;2.60;;
59770;SDS011;45649;53.014;6.600;2022-09-29T02:19:54;2.60;;;2.50;;
59770;SDS011;45649;53.014;6.600;2022-09-29T02:22:20;2.60;;;2.50;;
59770;SDS011;45649;53.014;6.600;2022-09-29T02:24:46;3.60;;;3.40;;
59770;SDS011;45649;53.014;6.600;2022-09-29T02:27:13;2.80;;;2.70;;
59770;SDS011;45649;53.014;6.600;2022-09-29T02:29:40;3.00;;;2.90;;
59770;SDS011;45649;53.014;6.600;2022-09-29T02:32:09;3.40;;;3.20;;
59770;SDS011;45649;53.014;6.600;2022-09-29T02:34:36;3.60;;;3.30;;
59770;SDS011;45649;53.014;6.600;2022-09-29T02:37:23;3.80;;;3.60;;
59770;SDS011;45649;53.014;6.600;2022-09-29T02:45:02;3.13;;;2.93;;
59770;SDS011;45649;53.014;6.600;2022-09-29T02:52:53;2.47;;;2.37;;
59770;SDS011;45649;53.014;6.600;2022-09-29T02:55:22;2.80;;;2.70;;
59770;SDS011;45649;53.014;6.600;2022-09-29T03:00:22;2.63;;;2.53;;
59770;SDS011;45649;53.014;6.600;2022-09-29T03:02:49;3.00;;;2.63;;
59770;SDS011;45649;53.014;6.600;2022-09-29T03:05:16;3.30;;;3.10;;
59770;SDS011;45649;53.014;6.600;2022-09-29T03:07:42;3.53;;;3.30;;
59770;SDS011;45649;53.014;6.600;2022-09-29T03:10:09;3.40;;;3.20;;
59770;SDS011;45649;53.014;6.600;2022-09-29T03:12:36;3.30;;;3.20;;
59770;SDS011;45649;53.014;6.600;2022-09-29T03:15:02;3.50;;;3.30;;
59770;SDS011;45649;53.014;6.600;2022-09-29T03:17:29;3.87;;;3.27;;
59770;SDS011;45649;53.014;6.600;2022-09-29T03:19:55;3.20;;;3.00;;
59770;SDS011;45649;53.014;6.600;2022-09-29T03:22:22;3.10;;;3.00;;
59770;SDS011;45649;53.014;6.600;2022-09-29T03:24:48;2.80;;;2.70;;
59770;SDS011;45649;53.014;6.600;2022-09-29T03:27:14;3.10;;;2.90;;
59770;SDS011;45649;53.014;6.600;2022-09-29T03:29:40;3.50;;;3.20;;
59770;SDS011;45649;53.014;6.600;2022-09-29T03:32:07;3.27;;;3.10;;
59770;SDS011;45649;53.014;6.600;2022-09-29T03:34:33;3.53;;;3.33;;
59770;SDS011;45649;53.014;6.600;2022-09-29T03:37:00;4.00;;;3.73;;
59770;SDS011;45649;53.014;6.600;2022-09-29T03:39:26;3.77;;;3.57;;
59770;SDS011;45649;53.014;6.600;2022-09-29T03:41:53;3.93;;;3.30;;
59770;SDS011;45649;53.014;6.600;2022-09-29T03:44:19;3.50;;;3.20;;
59770;SDS011;45649;53.014;6.600;2022-09-29T03:46:45;3.20;;;3.10;;
59770;SDS011;45649;53.014;6.600;2022-09-29T03:49:12;2.83;;;2.73;;
59770;SDS011;45649;53.014;6.600;2022-09-29T03:51:39;3.13;;;2.93;;
59770;SDS011;45649;53.014;6.600;2022-09-29T03:54:05;2.70;;;2.60;;
59770;SDS011;45649;53.014;6.600;2022-09-29T03:56:32;3.13;;;2.50;;
59770;SDS011;45649;53.014;6.600;2022-09-29T03:58:58;2.92;;;2.83;;
59770;SDS011;45649;53.014;6.600;2022-09-29T04:01:24;2.87;;;2.77;;
59770;SDS011;45649;53.014;6.600;2022-09-29T04:03:50;2.70;;;2.60;;
59770;SDS011;45649;53.014;6.600;2022-09-29T04:06:17;3.17;;;3.00;;
59770;SDS011;45649;53.014;6.600;2022-09-29T04:08:43;3.37;;;3.17;;
59770;SDS011;45649;53.014;6.600;2022-09-29T04:11:09;3.47;;;3.27;;
59770;SDS011;45649;53.014;6.600;2022-09-29T04:13:35;3.40;;;3.20;;
59770;SDS011;45649;53.014;6.600;2022-09-29T04:16:02;3.30;;;3.00;;
59770;SDS011;45649;53.014;6.600;2022-09-29T04:18:29;4.00;;;3.60;;
59770;SDS011;45649;53.014;6.600;2022-09-29T04:20:56;4.23;;;3.93;;
59770;SDS011;45649;53.014;6.600;2022-09-29T04:23:26;5.00;;;4.60;;
59770;SDS011;45649;53.014;6.600;2022-09-29T04:25:57;5.13;;;4.73;;
59770;SDS011;45649;53.014;6.600;2022-09-29T04:28:24;5.17;;;4.87;;
59770;SDS011;45649;53.014;6.600;2022-09-29T04:30:50;7.40;;;5.40;;
59770;SDS011;45649;53.014;6.600;2022-09-29T04:33:16;5.83;;;5.43;;
59770;SDS011;45649;53.014;6.600;2022-09-29T04:35:42;12.70;;;5.95;;
59770;SDS011;45649;53.014;6.600;2022-09-29T04:38:09;5.93;;;5.43;;
59770;SDS011;45649;53.014;6.600;2022-09-29T04:40:35;16.60;;;4.77;;
59770;SDS011;45649;53.014;6.600;2022-09-29T04:43:02;5.53;;;4.97;;
59770;SDS011;45649;53.014;6.600;2022-09-29T04:45:28;5.43;;;4.60;;
59770;SDS011;45649;53.014;6.600;2022-09-29T04:47:54;5.33;;;4.90;;
59770;SDS011;45649;53.014;6.600;2022-09-29T04:50:21;5.23;;;4.80;;
59770;SDS011;45649;53.014;6.600;2022-09-29T04:52:47;5.27;;;4.87;;
59770;SDS011;45649;53.014;6.600;2022-09-29T04:55:13;5.47;;;5.00;;
59770;SDS011;45649;53.014;6.600;2022-09-29T04:57:40;4.83;;;4.53;;
59770;SDS011;45649;53.014;6.600;2022-09-29T05:00:07;5.27;;;4.77;;
59770;SDS011;45649;53.014;6.600;2022-09-29T05:02:33;5.03;;;4.23;;
59770;SDS011;45649;53.014;6.600;2022-09-29T05:05:00;4.13;;;3.93;;
59770;SDS011;45649;53.014;6.600;2022-09-29T05:07:26;4.30;;;4.10;;
59770;SDS011;45649;53.014;6.600;2022-09-29T05:09:52;3.93;;;3.73;;
59770;SDS011;45649;53.014;6.600;2022-09-29T05:12:19;3.83;;;3.63;;
59770;SDS011;45649;53.014;6.600;2022-09-29T05:14:45;3.90;;;3.70;;
59770;SDS011;45649;53.014;6.600;2022-09-29T05:17:12;4.07;;;3.73;;
59770;SDS011;45649;53.014;6.600;2022-09-29T05:19:38;3.90;;;3.70;;
59770;SDS011;45649;53.014;6.600;2022-09-29T05:22:04;4.17;;;3.97;;
59770;SDS011;45649;53.014;6.600;2022-09-29T05:24:31;4.13;;;3.83;;
59770;SDS011;45649;53.014;6.600;2022-09-29T05:26:57;3.53;;;3.43;;
59770;SDS011;45649;53.014;6.600;2022-09-29T05:29:23;4.00;;;3.80;;
59770;SDS011;45649;53.014;6.600;2022-09-29T05:31:49;4.20;;;4.00;;
59770;SDS011;45649;53.014;6.600;2022-09-29T05:34:15;4.30;;;4.10;;
59770;SDS011;45649;53.014;6.600;2022-09-29T05:36:42;4.50;;;4.20;;
59770;SDS011;45649;53.014;6.600;2022-09-29T05:39:08;4.87;;;4.57;;
59770;SDS011;45649;53.014;6.600;2022-09-29T05:41:34;4.47;;;4.20;;
59770;SDS011;45649;53.014;6.600;2022-09-29T05:44:01;5.10;;;4.80;;
59770;SDS011;45649;53.014;6.600;2022-09-29T05:46:27;5.33;;;4.83;;
59770;SDS011;45649;53.014;6.600;2022-09-29T05:48:53;4.90;;;4.60;;
59770;SDS011;45649;53.014;6.600;2022-09-29T05:51:20;4.87;;;4.47;;
59770;SDS011;45649;53.014;6.600;2022-09-29T05:53:47;4.80;;;4.40;;
59770;SDS011;45649;53.014;6.600;2022-09-29T05:56:14;5.00;;;4.60;;
59770;SDS011;45649;53.014;6.600;2022-09-29T05:58:41;5.07;;;4.67;;
59770;SDS011;45649;53.014;6.600;2022-09-29T06:01:08;5.10;;;4.70;;
59770;SDS011;45649;53.014;6.600;2022-09-29T06:03:34;5.00;;;4.70;;
59770;SDS011;45649;53.014;6.600;2022-09-29T06:06:08;4.97;;;4.67;;
59770;SDS011;45649;53.014;6.600;2022-09-29T06:08:34;4.60;;;4.30;;
59770;SDS011;45649;53.014;6.600;2022-09-29T06:11:07;4.77;;;4.37;;
59770;SDS011;45649;53.014;6.600;2022-09-29T06:13:36;7.10;;;6.60;;
59770;SDS011;45649;53.014;6.600;2022-09-29T06:16:02;6.40;;;6.00;;
59770;SDS011;45649;53.014;6.600;2022-09-29T06:18:29;5.67;;;5.27;;
59770;SDS011;45649;53.014;6.600;2022-09-29T06:21:08;6.03;;;5.53;;
59770;SDS011;45649;53.014;6.600;2022-09-29T06:23:35;6.03;;;5.53;;
59770;SDS011;45649;53.014;6.600;2022-09-29T06:26:03;5.73;;;5.33;;
59770;SDS011;45649;53.014;6.600;2022-09-29T06:28:29;5.80;;;5.40;;
59770;SDS011;45649;53.014;6.600;2022-09-29T06:30:59;6.30;;;5.80;;
59770;SDS011;45649;53.014;6.600;2022-09-29T06:33:26;7.50;;;6.90;;
59770;SDS011;45649;53.014;6.600;2022-09-29T06:35:53;6.43;;;6.03;;
59770;SDS011;45649;53.014;6.600;2022-09-29T06:38:57;7.10;;;6.50;;
59770;SDS011;45649;53.014;6.600;2022-09-29T06:41:24;6.90;;;6.27;;
59770;SDS011;45649;53.014;6.600;2022-09-29T06:43:53;7.60;;;6.90;;
59770;SDS011;45649;53.014;6.600;2022-09-29T06:46:19;7.77;;;7.17;;
59770;SDS011;45649;53.014;6.600;2022-09-29T06:48:46;7.30;;;6.70;;
59770;SDS011;45649;53.014;6.600;2022-09-29T06:51:12;7.40;;;6.90;;
59770;SDS011;45649;53.014;6.600;2022-09-29T06:53:39;8.03;;;7.43;;
59770;SDS011;45649;53.014;6.600;2022-09-29T06:56:05;9.30;;;8.50;;
59770;SDS011;45649;53.014;6.600;2022-09-29T06:58:33;8.13;;;7.43;;
59770;SDS011;45649;53.014;6.600;2022-09-29T07:01:00;8.37;;;7.67;;
59770;SDS011;45649;53.014;6.600;2022-09-29T07:03:26;8.23;;;7.53;;
59770;SDS011;45649;53.014;6.600;2022-09-29T07:05:53;8.73;;;8.03;;
59770;SDS011;45649;53.014;6.600;2022-09-29T07:08:19;9.20;;;8.50;;
59770;SDS011;45649;53.014;6.600;2022-09-29T07:10:45;9.57;;;8.77;;
59770;SDS011;45649;53.014;6.600;2022-09-29T07:13:12;9.63;;;8.70;;
59770;SDS011;45649;53.014;6.600;2022-09-29T07:15:38;9.63;;;8.63;;
59770;SDS011;45649;53.014;6.600;2022-09-29T07:18:04;10.30;;;9.50;;
59770;SDS011;45649;53.014;6.600;2022-09-29T07:20:31;10.40;;;9.50;;
59770;SDS011;45649;53.014;6.600;2022-09-29T07:22:57;10.87;;;9.77;;
59770;SDS011;45649;53.014;6.600;2022-09-29T07:25:24;10.33;;;9.43;;
59770;SDS011;45649;53.014;6.600;2022-09-29T07:27:50;10.33;;;9.43;;
59770;SDS011;45649;53.014;6.600;2022-09-29T07:30:16;11.20;;;10.07;;
59770;SDS011;45649;53.014;6.600;2022-09-29T07:32:43;12.65;;;11.63;;
59770;SDS011;45649;53.014;6.600;2022-09-29T07:35:10;12.10;;;11.00;;
59770;SDS011;45649;53.014;6.600;2022-09-29T07:37:36;13.10;;;11.80;;
59770;SDS011;45649;53.014;6.600;2022-09-29T07:40:03;11.00;;;9.97;;
59770;SDS011;45649;53.014;6.600;2022-09-29T07:42:29;11.17;;;10.07;;
59770;SDS011;45649;53.014;6.600;2022-09-29T07:44:56;11.77;;;10.57;;
59770;SDS011;45649;53.014;6.600;2022-09-29T07:47:22;10.17;;;9.37;;
59770;SDS011;45649;53.014;6.600;2022-09-29T07:49:48;10.67;;;9.77;;
59770;SDS011;45649;53.014;6.600;2022-09-29T07:52:15;12.10;;;10.90;;
59770;SDS011;45649;53.014;6.600;2022-09-29T07:54:41;11.93;;;10.73;;
59770;SDS011;45649;53.014;6.600;2022-09-29T07:57:07;10.70;;;9.70;;
59770;SDS011;45649;53.014;6.600;2022-09-29T07:59:33;12.03;;;11.03;;
59770;SDS011;45649;53.014;6.600;2022-09-29T08:02:00;11.60;;;10.60;;
59770;SDS011;45649;53.014;6.600;2022-09-29T08:04:28;12.30;;;11.10;;
59770;SDS011;45649;53.014;6.600;2022-09-29T08:06:55;11.43;;;10.33;;
59770;SDS011;45649;53.014;6.600;2022-09-29T08:09:21;14.47;;;12.10;;
59770;SDS011;45649;53.014;6.600;2022-09-29T08:11:48;12.70;;;11.50;;
59770;SDS011;45649;53.014;6.600;2022-09-29T08:14:14;12.27;;;10.97;;
59770;SDS011;45649;53.014;6.600;2022-09-29T08:16:40;11.70;;;10.60;;
59770;SDS011;45649;53.014;6.600;2022-09-29T08:19:07;12.27;;;11.10;;
59770;SDS011;45649;53.014;6.600;2022-09-29T08:21:33;9.93;;;9.13;;
59770;SDS011;45649;53.014;6.600;2022-09-29T08:24:01;12.60;;;11.37;;
59770;SDS011;45649;53.014;6.600;2022-09-29T08:26:28;12.27;;;11.07;;
59770;SDS011;45649;53.014;6.600;2022-09-29T08:28:56;11.00;;;9.93;;
59770;SDS011;45649;53.014;6.600;2022-09-29T08:31:22;12.13;;;11.00;;
59770;SDS011;45649;53.014;6.600;2022-09-29T08:33:48;10.43;;;9.30;;
59770;SDS011;45649;53.014;6.600;2022-09-29T08:36:16;11.40;;;10.40;;
59770;SDS011;45649;53.014;6.600;2022-09-29T08:38:43;8.50;;;7.70;;
59770;SDS011;45649;53.014;6.600;2022-09-29T08:41:30;9.03;;;8.20;;
59770;SDS011;45649;53.014;6.600;2022-09-29T08:43:59;7.60;;;6.90;;
59770;SDS011;45649;53.014;6.600;2022-09-29T08:46:30;10.07;;;9.23;;
59770;SDS011;45649;53.014;6.600;2022-09-29T08:48:58;8.53;;;7.77;;
59770;SDS011;45649;53.014;6.600;2022-09-29T08:51:38;9.20;;;8.40;;
59770;SDS011;45649;53.014;6.600;2022-09-29T08:54:07;9.53;;;8.73;;
59770;SDS011;45649;53.014;6.600;2022-09-29T08:56:34;9.23;;;8.23;;
59770;SDS011;45649;53.014;6.600;2022-09-29T08:59:01;8.63;;;7.93;;
59770;SDS011;45649;53.014;6.600;2022-09-29T09:04:16;7.77;;;7.07;;
59770;SDS011;45649;53.014;6.600;2022-09-29T09:09:26;8.17;;;7.53;;
59770;SDS011;45649;53.014;6.600;2022-09-29T09:22:35;7.70;;;6.80;;
59770;SDS011;45649;53.014;6.600;2022-09-29T09:25:09;6.73;;;5.80;;
59770;SDS011;45649;53.014;6.600;2022-09-29T09:27:43;6.47;;;5.97;;
59770;SDS011;45649;53.014;6.600;2022-09-29T09:30:14;6.93;;;6.33;;
59770;SDS011;45649;53.014;6.600;2022-09-29T09:32:47;6.07;;;5.63;;
59770;SDS011;45649;53.014;6.600;2022-09-29T09:37:40;6.33;;;5.73;;
59770;SDS011;45649;53.014;6.600;2022-09-29T09:42:36;5.73;;;5.33;;
59770;SDS011;45649;53.014;6.600;2022-09-29T09:45:05;6.07;;;4.60;;
59770;SDS011;45649;53.014;6.600;2022-09-29T09:47:34;4.60;;;4.20;;
59770;SDS011;45649;53.014;6.600;2022-09-29T09:50:04;4.27;;;3.87;;
59770;SDS011;45649;53.014;6.600;2022-09-29T09:55:13;3.10;;;2.90;;
59770;SDS011;45649;53.014;6.600;2022-09-29T10:02:45;3.10;;;2.90;;
59770;SDS011;45649;53.014;6.600;2022-09-29T10:05:18;3.40;;;3.20;;
59770;SDS011;45649;53.014;6.600;2022-09-29T10:07:45;3.30;;;3.10;;
59770;SDS011;45649;53.014;6.600;2022-09-29T10:12:42;3.43;;;3.23;;
59770;SDS011;45649;53.014;6.600;2022-09-29T10:15:23;2.70;;;2.50;;
59770;SDS011;45649;53.014;6.600;2022-09-29T10:18:00;3.10;;;2.90;;
59770;SDS011;45649;53.014;6.600;2022-09-29T10:20:32;4.00;;;2.90;;
59770;SDS011;45649;53.014;6.600;2022-09-29T10:23:17;2.73;;;2.50;;
59770;SDS011;45649;53.014;6.600;2022-09-29T10:25:50;3.03;;;2.80;;
59770;SDS011;45649;53.014;6.600;2022-09-29T10:28:17;2.70;;;2.43;;
59770;SDS011;45649;53.014;6.600;2022-09-29T10:30:43;3.13;;;2.70;;
59770;SDS011;45649;53.014;6.600;2022-09-29T10:33:14;4.10;;;1.90;;
59770;SDS011;45649;53.014;6.600;2022-09-29T10:35:43;2.63;;;2.30;;
59770;SDS011;45649;53.014;6.600;2022-09-29T10:38:16;2.67;;;2.47;;
59770;SDS011;45649;53.014;6.600;2022-09-29T10:43:43;1.80;;;1.70;;
59770;SDS011;45649;53.014;6.600;2022-09-29T10:49:08;2.80;;;2.60;;
59770;SDS011;45649;53.014;6.600;2022-09-29T10:51:35;2.43;;;2.00;;
59770;SDS011;45649;53.014;6.600;2022-09-29T10:54:07;3.50;;;1.93;;
59770;SDS011;45649;53.014;6.600;2022-09-29T11:39:51;1.70;;;1.60;;
59770;SDS011;45649;53.014;6.600;2022-09-29T11:47:26;1.38;;;1.35;;
59770;SDS011;45649;53.014;6.600;2022-09-29T11:55:48;1.63;;;1.20;;
59770;SDS011;45649;53.014;6.600;2022-09-29T12:01:15;0.93;;;0.87;;
59770;SDS011;45649;53.014;6.600;2022-09-29T12:04:07;3.50;;;1.23;;
59770;SDS011;45649;53.014;6.600;2022-09-29T12:06:55;1.40;;;1.30;;
59770;SDS011;45649;53.014;6.600;2022-09-29T12:09:53;1.30;;;1.00;;
59770;SDS011;45649;53.014;6.600;2022-09-29T12:15:03;0.90;;;0.90;;
59770;SDS011;45649;53.014;6.600;2022-09-29T12:17:41;1.00;;;1.00;;
59770;SDS011;45649;53.014;6.600;2022-09-29T12:20:21;0.93;;;0.90;;
59770;SDS011;45649;53.014;6.600;2022-09-29T12:22:48;0.90;;;0.90;;
59770;SDS011;45649;53.014;6.600;2022-09-29T12:25:17;0.90;;;0.90;;
59770;SDS011;45649;53.014;6.600;2022-09-29T12:27:48;0.83;;;0.83;;
59770;SDS011;45649;53.014;6.600;2022-09-29T12:30:24;0.80;;;0.80;;
59770;SDS011;45649;53.014;6.600;2022-09-29T12:33:03;1.30;;;1.00;;
59770;SDS011;45649;53.014;6.600;2022-09-29T12:35:38;8.47;;;2.30;;
59770;SDS011;45649;53.014;6.600;2022-09-29T12:38:33;0.90;;;0.90;;
59770;SDS011;45649;53.014;6.600;2022-09-29T12:41:11;1.07;;;1.00;;
59770;SDS011;45649;53.014;6.600;2022-09-29T12:43:48;0.90;;;0.90;;
59770;SDS011;45649;53.014;6.600;2022-09-29T12:46:29;1.37;;;1.00;;
59770;SDS011;45649;53.014;6.600;2022-09-29T12:51:57;3.27;;;1.20;;
59770;SDS011;45649;53.014;6.600;2022-09-29T12:57:05;1.67;;;1.00;;
59770;SDS011;45649;53.014;6.600;2022-09-29T13:02:38;2.03;;;1.80;;
59770;SDS011;45649;53.014;6.600;2022-09-29T13:11:27;1.83;;;1.10;;
59770;SDS011;45649;53.014;6.600;2022-09-29T13:24:49;0.90;;;0.90;;
59770;SDS011;45649;53.014;6.600;2022-09-29T13:27:24;0.73;;;0.73;;
59770;SDS011;45649;53.014;6.600;2022-09-29T13:32:46;1.33;;;0.90;;
59770;SDS011;45649;53.014;6.600;2022-09-29T13:35:36;0.80;;;0.80;;
59770;SDS011;45649;53.014;6.600;2022-09-29T13:38:05;0.90;;;0.90;;
59770;SDS011;45649;53.014;6.600;2022-09-29T13:40:32;0.93;;;0.82;;
59770;SDS011;45649;53.014;6.600;2022-09-29T13:42:59;0.80;;;0.80;;
59770;SDS011;45649;53.014;6.600;2022-09-29T13:47:59;0.80;;;0.80;;
59770;SDS011;45649;53.014;6.600;2022-09-29T14:00:52;1.20;;;1.00;;
59770;SDS011;45649;53.014;6.600;2022-09-29T14:05:56;0.70;;;0.70;;
59770;SDS011;45649;53.014;6.600;2022-09-29T14:08:35;0.83;;;0.83;;
59770;SDS011;45649;53.014;6.600;2022-09-29T14:11:21;0.90;;;0.90;;
59770;SDS011;45649;53.014;6.600;2022-09-29T14:14:15;1.10;;;1.00;;
59770;SDS011;45649;53.014;6.600;2022-09-29T14:16:49;1.90;;;1.10;;
59770;SDS011;45649;53.014;6.600;2022-09-29T14:27:56;2.93;;;1.70;;
59770;SDS011;45649;53.014;6.600;2022-09-29T14:33:08;1.47;;;1.30;;
59770;SDS011;45649;53.014;6.600;2022-09-29T14:40:33;3.50;;;1.23;;
59770;SDS011;45649;53.014;6.600;2022-09-29T14:57:53;1.67;;;1.40;;
59770;SDS011;45649;53.014;6.600;2022-09-29T15:03:14;1.93;;;1.50;;
59770;SDS011;45649;53.014;6.600;2022-09-29T15:06:01;1.43;;;1.43;;
59770;SDS011;45649;53.014;6.600;2022-09-29T15:08:36;1.80;;;1.70;;
59770;SDS011;45649;53.014;6.600;2022-09-29T15:11:21;1.40;;;1.40;;
59770;SDS011;45649;53.014;6.600;2022-09-29T15:13:53;1.63;;;1.53;;
59770;SDS011;45649;53.014;6.600;2022-09-29T15:16:23;1.40;;;1.30;;
59770;SDS011;45649;53.014;6.600;2022-09-29T15:27:48;1.13;;;1.13;;
59770;SDS011;45649;53.014;6.600;2022-09-29T15:30:17;1.25;;;1.15;;
59770;SDS011;45649;53.014;6.600;2022-09-29T15:32:45;1.20;;;1.10;;
59770;SDS011;45649;53.014;6.600;2022-09-29T15:35:15;1.30;;;1.20;;
59770;SDS011;45649;53.014;6.600;2022-09-29T15:37:54;1.20;;;1.17;;
59770;SDS011;45649;53.014;6.600;2022-09-29T15:40:23;1.60;;;1.00;;
59770;SDS011;45649;53.014;6.600;2022-09-29T15:42:51;1.00;;;1.00;;
59770;SDS011;45649;53.014;6.600;2022-09-29T15:45:20;0.80;;;0.80;;
59770;SDS011;45649;53.014;6.600;2022-09-29T15:48:00;1.10;;;1.10;;
59770;SDS011;45649;53.014;6.600;2022-09-29T15:50:30;0.90;;;0.90;;
59770;SDS011;45649;53.014;6.600;2022-09-29T15:53:00;1.03;;;0.93;;
59770;SDS011;45649;53.014;6.600;2022-09-29T15:55:27;0.80;;;0.80;;
59770;SDS011;45649;53.014;6.600;2022-09-29T15:57:57;0.80;;;0.80;;
59770;SDS011;45649;53.014;6.600;2022-09-29T16:05:22;0.70;;;0.70;;
59770;SDS011;45649;53.014;6.600;2022-09-29T16:11:23;2.10;;;1.10;;
59770;SDS011;45649;53.014;6.600;2022-09-29T16:13:26;1.37;;;1.20;;
59770;SDS011;45649;53.014;6.600;2022-09-29T16:15:59;1.20;;;1.10;;
59770;SDS011;45649;53.014;6.600;2022-09-29T16:18:28;2.63;;;2.43;;
59770;SDS011;45649;53.014;6.600;2022-09-29T16:20:57;2.17;;;1.80;;
59770;SDS011;45649;53.014;6.600;2022-09-29T16:26:16;1.57;;;0.63;;
59770;SDS011;45649;53.014;6.600;2022-09-29T16:31:32;1.20;;;1.10;;
59770;SDS011;45649;53.014;6.600;2022-09-29T16:34:08;1.47;;;0.90;;
59770;SDS011;45649;53.014;6.600;2022-09-29T16:39:20;2.10;;;1.37;;
59770;SDS011;45649;53.014;6.600;2022-09-29T16:41:49;2.03;;;1.17;;
59770;SDS011;45649;53.014;6.600;2022-09-29T16:44:19;1.50;;;1.40;;
59770;SDS011;45649;53.014;6.600;2022-09-29T16:46:55;1.97;;;1.87;;
59770;SDS011;45649;53.014;6.600;2022-09-29T16:49:45;1.60;;;1.50;;
59770;SDS011;45649;53.014;6.600;2022-09-29T16:52:23;1.80;;;1.70;;
59770;SDS011;45649;53.014;6.600;2022-09-29T16:54:51;2.30;;;2.20;;
59770;SDS011;45649;53.014;6.600;2022-09-29T16:57:29;2.40;;;2.20;;
59770;SDS011;45649;53.014;6.600;2022-09-29T16:59:58;2.20;;;2.10;;
59770;SDS011;45649;53.014;6.600;2022-09-29T17:02:26;2.60;;;2.40;;
59770;SDS011;45649;53.014;6.600;2022-09-29T17:04:53;2.30;;;2.20;;
59770;SDS011;45649;53.014;6.600;2022-09-29T17:07:21;1.90;;;1.80;;
59770;SDS011;45649;53.014;6.600;2022-09-29T17:09:58;2.10;;;2.00;;
59770;SDS011;45649;53.014;6.600;2022-09-29T17:12:28;1.90;;;1.70;;
59770;SDS011;45649;53.014;6.600;2022-09-29T17:14:54;1.70;;;1.50;;
59770;SDS011;45649;53.014;6.600;2022-09-29T17:19:51;1.17;;;1.13;;
59770;SDS011;45649;53.014;6.600;2022-09-29T17:22:24;1.17;;;1.00;;
59770;SDS011;45649;53.014;6.600;2022-09-29T17:24:55;1.00;;;0.87;;
59770;SDS011;45649;53.014;6.600;2022-09-29T17:27:22;1.63;;;1.10;;
59770;SDS011;45649;53.014;6.600;2022-09-29T17:30:07;0.93;;;0.93;;
59770;SDS011;45649;53.014;6.600;2022-09-29T17:32:34;0.90;;;0.90;;
59770;SDS011;45649;53.014;6.600;2022-09-29T17:35:00;1.50;;;1.40;;
59770;SDS011;45649;53.014;6.600;2022-09-29T17:37:26;1.97;;;1.13;;
59770;SDS011;45649;53.014;6.600;2022-09-29T17:39:53;1.10;;;1.10;;
59770;SDS011;45649;53.014;6.600;2022-09-29T17:42:21;1.30;;;1.30;;
59770;SDS011;45649;53.014;6.600;2022-09-29T17:44:49;1.43;;;1.33;;
59770;SDS011;45649;53.014;6.600;2022-09-29T17:47:15;1.30;;;1.30;;
59770;SDS011;45649;53.014;6.600;2022-09-29T17:49:42;1.73;;;1.33;;
59770;SDS011;45649;53.014;6.600;2022-09-29T17:52:09;1.40;;;1.30;;
59770;SDS011;45649;53.014;6.600;2022-09-29T17:54:39;1.57;;;1.40;;
59770;SDS011;45649;53.014;6.600;2022-09-29T17:57:05;2.27;;;1.60;;
59770;SDS011;45649;53.014;6.600;2022-09-29T17:59:32;1.60;;;1.50;;
59770;SDS011;45649;53.014;6.600;2022-09-29T18:02:04;1.83;;;1.53;;
59770;SDS011;45649;53.014;6.600;2022-09-29T18:04:35;1.70;;;1.60;;
59770;SDS011;45649;53.014;6.600;2022-09-29T18:07:05;2.10;;;2.00;;
59770;SDS011;45649;53.014;6.600;2022-09-29T18:09:32;1.93;;;1.80;;
59770;SDS011;45649;53.014;6.600;2022-09-29T18:11:58;2.37;;;2.27;;
59770;SDS011;45649;53.014;6.600;2022-09-29T18:14:25;2.43;;;2.30;;
59770;SDS011;45649;53.014;6.600;2022-09-29T18:16:54;2.40;;;2.20;;
59770;SDS011;45649;53.014;6.600;2022-09-29T18:19:20;2.03;;;1.93;;
59770;SDS011;45649;53.014;6.600;2022-09-29T18:21:46;2.70;;;2.50;;
59770;SDS011;45649;53.014;6.600;2022-09-29T18:24:13;3.17;;;2.90;;
59770;SDS011;45649;53.014;6.600;2022-09-29T18:26:39;4.70;;;2.60;;
59770;SDS011;45649;53.014;6.600;2022-09-29T18:29:15;2.67;;;2.47;;
59770;SDS011;45649;53.014;6.600;2022-09-29T18:31:42;4.03;;;2.63;;
59770;SDS011;45649;53.014;6.600;2022-09-29T18:34:18;7.50;;;5.80;;
59770;SDS011;45649;53.014;6.600;2022-09-29T18:36:47;8.70;;;7.80;;
59770;SDS011;45649;53.014;6.600;2022-09-29T18:39:13;7.63;;;6.70;;
59770;SDS011;45649;53.014;6.600;2022-09-29T18:41:38;19.90;;;16.73;;
59770;SDS011;45649;53.014;6.600;2022-09-29T18:44:22;18.00;;;15.30;;
59770;SDS011;45649;53.014;6.600;2022-09-29T18:46:53;6.67;;;6.00;;
59770;SDS011;45649;53.014;6.600;2022-09-29T18:49:22;8.13;;;5.70;;
59770;SDS011;45649;53.014;6.600;2022-09-29T18:51:48;2.83;;;2.63;;
59770;SDS011;45649;53.014;6.600;2022-09-29T18:54:16;1.80;;;1.70;;
59770;SDS011;45649;53.014;6.600;2022-09-29T18:56:43;2.00;;;1.70;;